Time;durP1;ratioP1;P1;durP2;ratioP2;P2;SDS_P1;SDS_P2;PMS_P1;PMS_P2;Temp;Humidity;BMP_temperature;BMP_pressure;BME280_temperature;BME280_humidity;BME280_pressure;Samples;Min_cycle;Max_cycle;Signal;HPM_P1;HPM_P2
2022/08/19 00:00:38;;;;;;;11.07;7.20;;;17.30;99.90;;;;;;5017945;28;20045;-68
2022/08/19 00:03:05;;;;;;;9.53;8.13;;;17.30;99.90;;;;;;5035292;28;20046;-68
2022/08/19 00:05:31;;;;;;;11.93;8.23;;;17.20;99.90;;;;;;5035372;28;20049;-67
2022/08/19 00:07:57;;;;;;;11.10;8.10;;;17.30;99.90;;;;;;5035816;28;20095;-68
2022/08/19 00:10:24;;;;;;;10.57;7.73;;;17.30;99.90;;;;;;5035773;28;20512;-68
2022/08/19 00:12:50;;;;;;;11.60;7.50;;;17.30;99.90;;;;;;5036032;28;20401;-68
2022/08/19 00:15:20;;;;;;;10.23;7.50;;;17.20;99.90;;;;;;5035955;28;20190;-68
2022/08/19 00:17:47;;;;;;;10.43;7.77;;;17.20;99.90;;;;;;5035382;28;20041;-68
2022/08/19 00:20:17;;;;;;;10.03;7.17;;;17.30;99.90;;;;;;5035360;28;20101;-68
2022/08/19 00:22:43;;;;;;;12.27;8.00;;;17.30;99.90;;;;;;5035219;28;20041;-68
2022/08/19 00:25:10;;;;;;;11.83;8.03;;;17.30;99.90;;;;;;5034937;28;20092;-68
2022/08/19 00:27:36;;;;;;;14.67;7.77;;;17.20;99.90;;;;;;5034994;28;20099;-68
2022/08/19 00:30:04;;;;;;;10.67;7.10;;;17.20;99.90;;;;;;5034911;28;20045;-68
2022/08/19 00:32:29;;;;;;;9.27;7.10;;;17.10;99.90;;;;;;5034819;28;20045;-68
2022/08/19 00:34:55;;;;;;;10.30;7.90;;;17.10;99.90;;;;;;5034757;28;20092;-69
2022/08/19 00:37:23;;;;;;;9.33;7.77;;;17.10;99.90;;;;;;5017299;28;20056;-68
2022/08/19 00:39:50;;;;;;;8.30;7.13;;;17.10;99.90;;;;;;5034780;28;20092;-68
2022/08/19 00:42:17;;;;;;;8.87;7.33;;;17.20;99.90;;;;;;5034640;28;20049;-68
2022/08/19 00:44:43;;;;;;;11.03;7.87;;;17.10;99.90;;;;;;5034677;28;20058;-68
2022/08/19 00:47:09;;;;;;;10.47;7.50;;;17.10;99.90;;;;;;5013514;28;20054;-68
2022/08/19 00:49:41;;;;;;;9.43;7.70;;;17.10;99.90;;;;;;5014147;28;20049;-68
2022/08/19 00:52:12;;;;;;;9.43;8.00;;;17.10;99.90;;;;;;5014767;28;20034;-68
2022/08/19 00:54:39;;;;;;;10.77;7.17;;;17.20;99.90;;;;;;5015068;28;20046;-68
2022/08/19 00:57:12;;;;;;;9.73;8.10;;;17.10;99.90;;;;;;5015127;28;20363;-68
2022/08/19 00:59:39;;;;;;;9.27;7.37;;;17.00;99.90;;;;;;5014733;28;20049;-68
2022/08/19 01:02:05;;;;;;;9.00;7.80;;;17.00;99.90;;;;;;5014593;28;20061;-68
2022/08/19 01:04:31;;;;;;;9.63;8.17;;;17.00;99.90;;;;;;5015081;28;20049;-68
2022/08/19 01:06:58;;;;;;;8.47;7.67;;;17.00;99.90;;;;;;5014534;28;20134;-68
2022/08/19 01:09:24;;;;;;;10.93;8.13;;;17.00;99.90;;;;;;5013295;28;20075;-68
2022/08/19 01:11:50;;;;;;;9.80;8.63;;;17.00;99.90;;;;;;5013923;28;20513;-68
2022/08/19 01:14:16;;;;;;;11.50;8.87;;;16.90;99.90;;;;;;5014401;28;20053;-68
2022/08/19 01:16:43;;;;;;;11.20;8.23;;;17.00;99.90;;;;;;5014376;28;20053;-68
2022/08/19 01:19:24;;;;;;;10.87;9.17;;;;;;;;;;5013377;28;20381;-68
2022/08/19 01:21:57;;;;;;;9.67;8.17;;;16.90;99.90;;;;;;5014778;28;20070;-67
2022/08/19 01:24:23;;;;;;;10.33;9.23;;;16.80;99.90;;;;;;5014313;28;20046;-68
2022/08/19 01:26:50;;;;;;;11.80;8.00;;;16.80;99.90;;;;;;5014206;28;20051;-68
2022/08/19 01:29:15;;;;;;;10.07;8.97;;;16.70;99.90;;;;;;5014430;28;20045;-68
2022/08/19 01:31:41;;;;;;;9.43;8.40;;;16.70;99.90;;;;;;5014702;28;20482;-68
2022/08/19 01:34:07;;;;;;;10.57;8.27;;;16.70;99.90;;;;;;5014048;28;20049;-67
2022/08/19 01:36:41;;;;;;;9.77;8.23;;;16.80;99.90;;;;;;5014001;28;20128;-68
2022/08/19 01:39:12;;;;;;;9.83;7.97;;;16.80;99.90;;;;;;5013988;28;20092;-68
2022/08/19 01:41:38;;;;;;;11.20;9.13;;;16.80;99.90;;;;;;5014599;28;20377;-67
2022/08/19 01:44:05;;;;;;;10.50;9.27;;;16.70;99.90;;;;;;5013792;28;20042;-68
2022/08/19 01:46:32;;;;;;;11.60;8.13;;;16.70;99.90;;;;;;5013856;28;20072;-67
2022/08/19 01:48:58;;;;;;;11.47;9.37;;;16.70;99.90;;;;;;5013063;28;20057;-68
2022/08/19 01:51:24;;;;;;;10.50;9.30;;;16.70;99.90;;;;;;5013759;28;20129;-68
2022/08/19 01:53:50;;;;;;;12.10;8.73;;;16.70;99.90;;;;;;5013800;28;20124;-67
2022/08/19 01:56:18;;;;;;;11.50;9.43;;;16.70;99.90;;;;;;5013692;28;20080;-68
2022/08/19 01:58:57;;;;;;;11.20;9.17;;;16.70;99.90;;;;;;5013311;28;20081;-68
2022/08/19 02:01:23;;;;;;;11.57;9.63;;;16.60;99.90;;;;;;5013734;28;20049;-68
2022/08/19 02:03:49;;;;;;;11.60;9.60;;;16.60;99.90;;;;;;5013554;28;20046;-68
2022/08/19 02:06:16;;;;;;;10.83;9.60;;;16.60;99.90;;;;;;5013548;28;20045;-68
2022/08/19 02:08:45;;;;;;;11.03;8.47;;;16.60;99.90;;;;;;5013653;28;20049;-67
2022/08/19 02:11:22;;;;;;;11.67;9.40;;;16.60;99.90;;;;;;5013546;28;20042;-68
2022/08/19 02:13:49;;;;;;;13.67;9.10;;;16.50;99.90;;;;;;5013631;28;20053;-68
2022/08/19 02:16:16;;;;;;;13.17;9.17;;;16.50;99.90;;;;;;5013525;28;20049;-68
2022/08/19 02:18:42;;;;;;;11.70;8.77;;;16.50;99.90;;;;;;5013511;28;20046;-68
2022/08/19 02:21:07;;;;;;;11.97;8.50;;;16.60;99.90;;;;;;5013519;28;20050;-68
2022/08/19 02:23:33;;;;;;;11.10;9.23;;;16.60;99.90;;;;;;5015738;28;20501;-68
2022/08/19 02:25:59;;;;;;;11.43;9.67;;;16.50;99.90;;;;;;5017473;28;20067;-68
2022/08/19 02:28:24;;;;;;;10.13;8.93;;;16.50;99.90;;;;;;5017400;28;20045;-68
2022/08/19 02:30:50;;;;;;;10.17;9.00;;;16.50;99.90;;;;;;5017646;28;20050;-68
2022/08/19 02:33:16;;;;;;;9.73;8.43;;;16.50;99.90;;;;;;5017876;28;20501;-68
2022/08/19 02:35:46;;;;;;;11.33;9.60;;;16.50;99.90;;;;;;5017897;28;20056;-67
2022/08/19 02:38:25;;;;;;;11.30;8.93;;;16.50;99.90;;;;;;5016973;28;20045;-68
2022/08/19 02:41:02;;;;;;;10.07;9.00;;;16.50;99.90;;;;;;5017234;28;20057;-68
2022/08/19 02:43:29;;;;;;;10.50;8.73;;;16.50;99.90;;;;;;5017624;28;20398;-67
2022/08/19 02:45:55;;;;;;;11.40;9.27;;;16.40;99.90;;;;;;5015915;28;20049;-67
2022/08/19 02:48:24;;;;;;;11.87;9.00;;;16.40;99.90;;;;;;5032001;28;20112;-68
2022/08/19 02:50:54;;;;;;;13.40;8.50;;;16.40;99.90;;;;;;5036755;28;20136;-67
2022/08/19 02:53:22;;;;;;;10.20;8.63;;;16.30;99.90;;;;;;5036992;28;20402;-67
2022/08/19 02:55:50;;;;;;;11.00;8.73;;;16.30;99.90;;;;;;5018902;28;20459;-67
2022/08/19 02:58:17;;;;;;;10.47;8.60;;;16.30;99.90;;;;;;5036638;28;20452;-68
2022/08/19 03:00:48;;;;;;;11.57;8.40;;;16.30;99.90;;;;;;5036867;28;20444;-67
2022/08/19 03:03:15;;;;;;;11.70;8.43;;;16.20;99.90;;;;;;5037020;28;20103;-67
2022/08/19 03:05:41;;;;;;;9.83;8.53;;;16.30;99.90;;;;;;5036474;28;20049;-68
2022/08/19 03:08:10;;;;;;;11.40;8.17;;;16.30;99.90;;;;;;5036409;28;20052;-68
2022/08/19 03:10:43;;;;;;;10.50;7.67;;;16.30;99.90;;;;;;5036100;28;20489;-68
2022/08/19 03:13:10;;;;;;;9.10;7.83;;;16.40;99.90;;;;;;5019886;28;20045;-67
2022/08/19 03:15:40;;;;;;;10.17;7.87;;;16.40;99.90;;;;;;5036568;28;20464;-68
2022/08/19 03:18:05;;;;;;;10.07;7.67;;;16.30;99.90;;;;;;5036265;28;20041;-68
2022/08/19 03:20:31;;;;;;;9.47;7.50;;;16.30;99.90;;;;;;5036536;28;20132;-67
2022/08/19 03:22:57;;;;;;;9.07;7.60;;;16.30;99.90;;;;;;5018611;28;20429;-67
2022/08/19 03:25:22;;;;;;;9.03;8.13;;;16.30;99.90;;;;;;5036032;28;20050;-68
2022/08/19 03:27:48;;;;;;;10.03;8.07;;;16.30;99.90;;;;;;5036055;28;20041;-67
2022/08/19 03:30:14;;;;;;;10.90;7.43;;;16.30;99.90;;;;;;5035935;28;20103;-70
2022/08/19 03:32:40;;;;;;;8.70;7.63;;;16.40;99.90;;;;;;5018139;28;20079;-68
2022/08/19 03:35:06;;;;;;;9.47;8.07;;;16.40;99.90;;;;;;5035407;28;20048;-67
2022/08/19 03:37:32;;;;;;;12.67;8.00;;;16.30;99.90;;;;;;5035863;28;20057;-68
2022/08/19 03:39:58;;;;;;;10.27;8.47;;;16.30;99.90;;;;;;5035813;28;20473;-68
2022/08/19 03:42:26;;;;;;;10.07;7.80;;;16.30;99.90;;;;;;5036551;28;20077;-68
2022/08/19 03:44:52;;;;;;;12.53;9.87;;;16.20;99.90;;;;;;5035753;28;20053;-67
2022/08/19 03:47:18;;;;;;;11.03;9.13;;;16.20;99.90;;;;;;5035454;28;20119;-68
2022/08/19 03:49:44;;;;;;;10.03;8.77;;;16.20;99.90;;;;;;5036252;28;20072;-68
2022/08/19 03:52:09;;;;;;;11.07;9.20;;;16.20;99.90;;;;;;5035861;28;20049;-68
2022/08/19 03:54:37;;;;;;;12.10;9.00;;;16.20;99.90;;;;;;5035750;28;20385;-68
2022/08/19 03:57:04;;;;;;;11.13;10.03;;;16.20;99.90;;;;;;5035530;28;20118;-67
2022/08/19 03:59:32;;;;;;;10.93;9.73;;;;;;;;;;5036253;28;20193;-68
2022/08/19 04:02:00;;;;;;;11.47;9.67;;;16.20;99.90;;;;;;5035366;28;20449;-67
2022/08/19 04:04:26;;;;;;;14.23;10.20;;;16.10;99.90;;;;;;5017459;28;20397;-68
2022/08/19 04:06:53;;;;;;;11.30;9.27;;;16.10;99.90;;;;;;5035266;28;20060;-67
2022/08/19 04:09:20;;;;;;;11.73;9.90;;;16.20;99.90;;;;;;5035895;28;20429;-70
2022/08/19 04:11:53;;;;;;;13.03;9.93;;;16.20;99.90;;;;;;5035619;28;20048;-67
2022/08/19 04:14:28;;;;;;;12.47;10.57;;;16.10;99.90;;;;;;5036026;28;20049;-70
2022/08/19 04:16:54;;;;;;;13.60;10.57;;;16.20;99.90;;;;;;5035528;28;20052;-67
2022/08/19 04:19:20;;;;;;;9.93;8.93;;;16.10;99.90;;;;;;5035104;28;20053;-70
2022/08/19 04:21:49;;;;;;;11.50;9.67;;;16.10;99.90;;;;;;5035619;28;20064;-67
2022/08/19 04:24:15;;;;;;;11.80;9.87;;;16.20;99.90;;;;;;5035859;28;20041;-68
2022/08/19 04:26:41;;;;;;;10.93;9.83;;;16.20;99.90;;;;;;5035568;28;20060;-68
2022/08/19 04:29:11;;;;;;;12.67;10.03;;;16.20;99.90;;;;;;5035300;28;20045;-68
2022/08/19 04:31:37;;;;;;;13.97;10.93;;;16.20;99.90;;;;;;5017126;28;20057;-68
2022/08/19 04:34:06;;;;;;;12.00;10.27;;;16.20;99.90;;;;;;5035029;28;20396;-68
2022/08/19 04:36:35;;;;;;;12.00;10.23;;;16.20;99.90;;;;;;5035205;28;20148;-68
2022/08/19 04:39:07;;;;;;;12.17;10.60;;;16.20;99.90;;;;;;5017369;28;20381;-67
2022/08/19 04:44:18;;;;;;;12.38;10.38;;;16.20;99.90;;;;;;5034594;28;20085;-68
2022/08/19 04:46:44;;;;;;;13.63;12.23;;;16.20;99.90;;;;;;5033759;28;20080;-68
2022/08/19 04:49:11;;;;;;;14.03;12.13;;;16.20;99.90;;;;;;5035690;28;20420;-67
2022/08/19 04:51:39;;;;;;;16.07;12.77;;;16.20;99.90;;;;;;5034935;28;20084;-68
2022/08/19 04:54:05;;;;;;;13.70;11.97;;;16.30;99.90;;;;;;5034361;28;20049;-68
2022/08/19 04:56:31;;;;;;;15.43;12.90;;;16.30;99.90;;;;;;5034385;28;20115;-68
2022/08/19 04:59:02;;;;;;;13.77;12.37;;;16.30;99.90;;;;;;5034947;28;20128;-67
2022/08/19 05:01:29;;;;;;;15.17;12.53;;;16.30;99.90;;;;;;5034626;28;20063;-68
2022/08/19 05:03:56;;;;;;;13.67;12.00;;;16.30;99.90;;;;;;5034210;28;20099;-68
2022/08/19 05:06:23;;;;;;;15.33;13.37;;;16.30;99.90;;;;;;5034211;28;20041;-67
2022/08/19 05:08:49;;;;;;;16.13;13.10;;;16.30;99.90;;;;;;5034126;28;20041;-68
2022/08/19 05:11:19;;;;;;;19.27;14.07;;;16.30;99.90;;;;;;5034672;28;20385;-68
2022/08/19 05:13:46;;;;;;;15.23;12.60;;;16.30;99.90;;;;;;5034130;28;20072;-68
2022/08/19 05:16:13;;;;;;;15.07;13.43;;;16.30;99.90;;;;;;5034087;28;20409;-67
2022/08/19 05:24:08;;;;;;;15.23;13.60;;;16.50;99.90;;;;;;5033955;28;20470;-68
2022/08/19 05:26:43;;;;;;;15.83;13.63;;;16.50;99.90;;;;;;5034130;28;20049;-68
2022/08/19 05:29:09;;;;;;;16.33;14.60;;;16.60;99.90;;;;;;5034663;28;20164;-68
2022/08/19 05:31:38;;;;;;;15.80;13.77;;;16.60;99.90;;;;;;5000024;28;20049;-68
2022/08/19 05:34:04;;;;;;;15.20;13.03;;;16.60;99.90;;;;;;5033795;28;20045;-68
2022/08/19 05:36:35;;;;;;;16.77;15.03;;;16.60;99.90;;;;;;5033659;28;20046;-68
2022/08/19 05:39:03;;;;;;;17.93;14.63;;;16.70;99.90;;;;;;5033722;28;20056;-68
2022/08/19 05:41:30;;;;;;;15.47;13.87;;;16.70;99.90;;;;;;5033660;28;20049;-68
2022/08/19 05:43:58;;;;;;;16.27;14.67;;;16.80;99.90;;;;;;5033536;28;20041;-68
2022/08/19 05:46:24;;;;;;;15.60;13.77;;;16.90;99.90;;;;;;5033604;28;20134;-68
2022/08/19 05:48:50;;;;;;;15.97;14.23;;;16.90;99.90;;;;;;5033208;28;20150;-68
2022/08/19 05:51:16;;;;;;;19.77;14.47;;;17.00;99.90;;;;;;5033468;28;20042;-68
2022/08/19 05:53:43;;;;;;;18.50;13.33;;;17.10;99.90;;;;;;5033413;28;20128;-68
2022/08/19 05:56:12;;;;;;;13.17;11.77;;;17.40;99.90;;;;;;5033522;28;20401;-68
2022/08/19 05:58:39;;;;;;;14.20;11.43;;;18.30;99.90;;;;;;5033411;28;20138;-69
2022/08/19 06:01:10;;;;;;;12.70;11.50;;;19.50;99.90;;;;;;5033943;28;20044;-69
2022/08/19 06:03:37;;;;;;;15.27;10.90;;;20.70;99.90;;;;;;5033902;28;20129;-69
2022/08/19 06:06:05;;;;;;;11.97;9.57;;;21.70;99.90;;;;;;5033439;28;20053;-69
2022/08/19 06:08:31;;;;;;;11.03;9.87;;;22.60;99.90;;;;;;5033334;28;20049;-69
2022/08/19 06:10:57;;;;;;;11.17;10.03;;;23.90;99.90;;;;;;5033376;28;20085;-69
2022/08/19 06:13:23;;;;;;;11.70;9.73;;;24.50;99.90;;;;;;5015777;28;20092;-69
2022/08/19 06:15:49;;;;;;;10.93;9.73;;;25.10;99.90;;;;;;5033264;28;20049;-69
2022/08/19 06:18:16;;;;;;;12.00;9.27;;;;;;;;;;5033305;28;20052;-69
2022/08/19 06:20:42;;;;;;;9.70;8.73;;;25.80;99.90;;;;;;5033260;28;20134;-69
2022/08/19 06:23:08;;;;;;;13.17;10.53;;;26.40;99.90;;;;;;5016397;28;20125;-69
2022/08/19 06:25:35;;;;;;;13.47;9.50;;;26.90;99.90;;;;;;5033571;28;20049;-69
2022/08/19 06:28:01;;;;;;;10.40;9.30;;;27.00;99.80;;;;;;5033221;28;20064;-70
2022/08/19 06:30:27;;;;;;;10.20;8.60;;;27.40;90.40;;;;;;5033681;28;20046;-69
2022/08/19 06:32:53;;;;;;;9.87;8.73;;;27.70;95.80;;;;;;5015572;28;20377;-69
2022/08/19 06:35:19;;;;;;;11.40;9.27;;;28.10;92.50;;;;;;5033627;28;20053;-70
2022/08/19 06:37:45;;;;;;;11.77;9.63;;;28.60;90.70;;;;;;5033354;28;20049;-69
2022/08/19 06:40:12;;;;;;;10.70;9.53;;;28.80;84.80;;;;;;5033156;28;20125;-70
2022/08/19 06:42:38;;;;;;;14.38;9.18;;;29.20;81.50;;;;;;5032927;28;20041;-71
2022/08/19 06:45:07;;;;;;;12.73;9.77;;;29.60;76.20;;;;;;5033087;28;20191;-69
2022/08/19 06:47:33;;;;;;;10.50;9.43;;;29.90;73.40;;;;;;5033707;28;20132;-68
2022/08/19 06:50:02;;;;;;;9.93;8.40;;;29.70;72.30;;;;;;5033748;28;20509;-69
2022/08/19 06:52:33;;;;;;;12.13;9.98;;;30.00;70.40;;;;;;5033087;28;20044;-69
2022/08/19 06:54:59;;;;;;;11.40;9.88;;;30.40;67.70;;;;;;5033614;28;20115;-70
2022/08/19 06:57:26;;;;;;;10.80;9.80;;;30.50;66.60;;;;;;5032981;28;20056;-71
2022/08/19 06:59:52;;;;;;;12.43;10.23;;;;;;;;;;5032666;28;20568;-70
2022/08/19 07:02:20;;;;;;;10.10;9.10;;;31.20;59.70;;;;;;5032901;28;20049;-68
2022/08/19 07:04:46;;;;;;;12.32;9.05;;;;;;;;;;5032883;28;20474;-68
2022/08/19 07:07:13;;;;;;;10.73;9.63;;;;;;;;;;5032791;28;20549;-67
2022/08/19 07:09:41;;;;;;;10.52;9.50;;;;;;;;;;5035045;28;20414;-67
2022/08/19 07:12:09;;;;;;;10.15;9.15;;;32.10;55.00;;;;;;5036466;28;20052;-67
2022/08/19 07:14:37;;;;;;;10.82;9.68;;;32.10;57.60;;;;;;5036134;28;20401;-67
2022/08/19 07:17:05;;;;;;;10.27;9.05;;;32.30;57.20;;;;;;5036316;28;20049;-67
2022/08/19 07:19:31;;;;;;;9.88;8.88;;;32.60;56.20;;;;;;5036306;28;20049;-67
2022/08/19 07:21:59;;;;;;;10.35;9.35;;;32.60;55.90;;;;;;5036204;28;20048;-68
2022/08/19 07:24:27;;;;;;;11.63;10.00;;;32.60;56.10;;;;;;5036312;28;20084;-67
2022/08/19 07:26:54;;;;;;;10.10;8.95;;;32.60;55.50;;;;;;5035845;28;20050;-68
2022/08/19 07:29:24;;;;;;;10.02;9.07;;;32.70;54.90;;;;;;5036138;28;20045;-68
2022/08/19 07:31:51;;;;;;;10.40;9.00;;;32.80;55.10;;;;;;5019117;28;20103;-67
2022/08/19 07:34:17;;;;;;;12.48;10.45;;;33.00;54.80;;;;;;5036094;28;20038;-67
2022/08/19 07:36:43;;;;;;;10.45;9.30;;;33.20;53.80;;;;;;5036056;28;20433;-67
2022/08/19 07:39:13;;;;;;;9.80;8.80;;;33.30;53.40;;;;;;5018424;28;20042;-67
2022/08/19 07:41:40;;;;;;;10.25;9.25;;;;;;;;;;5035739;28;20049;-69
2022/08/19 07:44:07;;;;;;;12.52;9.02;;;;;;;;;;5035650;28;20068;-68
2022/08/19 07:46:38;;;;;;;10.75;9.45;;;33.90;51.60;;;;;;5035730;28;20049;-68
2022/08/19 07:49:06;;;;;;;10.70;9.38;;;34.10;51.40;;;;;;5036250;28;20611;-68
2022/08/19 07:51:32;;;;;;;10.20;9.05;;;34.20;51.20;;;;;;5035742;28;20111;-71
2022/08/19 07:53:58;;;;;;;14.05;9.73;;;34.20;51.20;;;;;;5035689;28;20041;-68
2022/08/19 07:56:24;;;;;;;10.75;9.27;;;;;;;;;;5035684;28;20053;-68
2022/08/19 07:58:51;;;;;;;11.48;9.70;;;;;;;;;;5035525;28;20137;-69
2022/08/19 08:01:19;;;;;;;11.85;10.75;;;;;;;;;;5036088;28;20052;-68
2022/08/19 08:09:21;;;;;;;12.13;10.95;;;32.90;68.50;;;;;;5035836;28;20104;-67
2022/08/19 08:12:15;;;;;;;13.48;12.20;;;31.80;54.40;;;;;;5035747;28;20049;-68
2022/08/19 08:14:45;;;;;;;14.60;13.18;;;31.20;56.20;;;;;;5032861;28;20559;-67
2022/08/19 08:17:12;;;;;;;14.25;12.95;;;30.60;57.40;;;;;;5035426;28;20060;-67
2022/08/19 08:19:40;;;;;;;16.10;14.57;;;30.10;58.70;;;;;;5034671;28;20053;-67
2022/08/19 08:22:08;;;;;;;14.90;13.43;;;29.70;59.80;;;;;;5034713;28;20504;-66
2022/08/19 08:24:35;;;;;;;15.20;13.90;;;29.50;61.70;;;;;;5034999;28;20049;-67
2022/08/19 08:27:01;;;;;;;15.27;13.77;;;29.00;63.70;;;;;;5035052;28;20045;-66
2022/08/19 08:29:29;;;;;;;14.93;13.52;;;28.60;66.00;;;;;;5035393;28;20049;-67
2022/08/19 08:31:55;;;;;;;15.63;14.18;;;28.40;67.90;;;;;;5035741;28;20053;-68
2022/08/19 08:34:21;;;;;;;14.55;13.20;;;28.20;71.50;;;;;;5034652;28;20128;-65
2022/08/19 08:36:47;;;;;;;16.15;14.75;;;28.10;73.90;;;;;;5034808;28;20079;-69
2022/08/19 08:39:18;;;;;;;16.23;14.73;;;28.10;74.60;;;;;;5035231;28;20362;-70
2022/08/19 08:41:59;;;;;;;16.98;15.40;;;;;;;;;;5017232;28;20081;-71
2022/08/19 08:44:48;;;;;;;17.65;16.05;;;28.00;77.80;;;;;;5034713;28;20049;-71
2022/08/19 08:47:17;;;;;;;17.15;15.65;;;27.90;79.00;;;;;;5033865;28;20148;-72
2022/08/19 08:49:59;;;;;;;18.00;16.40;;;27.60;79.90;;;;;;5017267;28;20056;-71
2022/08/19 08:52:31;;;;;;;17.58;16.02;;;27.50;81.60;;;;;;5016968;28;20053;-72
2022/08/19 08:54:59;;;;;;;18.38;16.67;;;27.50;83.20;;;;;;5035056;28;20052;-72
2022/08/19 08:57:46;;;;;;;17.48;15.77;;;27.50;84.60;;;;;;5034547;28;20041;-73
2022/08/19 09:00:22;;;;;;;17.80;15.98;;;27.30;86.40;;;;;;5034989;28;20045;-72
2022/08/19 09:02:48;;;;;;;18.58;16.77;;;27.10;90.20;;;;;;5034684;28;20063;-71
2022/08/19 09:05:13;;;;;;;17.20;15.57;;;27.10;89.80;;;;;;5034406;28;20454;-71
2022/08/19 09:07:45;;;;;;;17.40;15.60;;;27.10;90.70;;;;;;5034646;28;20389;-71
2022/08/19 09:10:33;;;;;;;20.25;18.35;;;27.10;91.90;;;;;;5034675;28;20128;-74
2022/08/19 09:13:27;;;;;;;18.77;17.05;;;27.20;91.90;;;;;;5018491;28;20099;-72
2022/08/19 09:15:57;;;;;;;19.70;18.00;;;27.10;92.40;;;;;;5033896;28;20493;-70
2022/08/19 09:18:23;;;;;;;17.15;15.65;;;27.00;92.70;;;;;;5034762;28;20389;-71
2022/08/19 09:20:49;;;;;;;17.45;15.75;;;26.90;93.30;;;;;;5034349;28;20120;-72
2022/08/19 09:23:15;;;;;;;20.23;18.27;;;27.00;93.40;;;;;;5033933;28;20436;-71
2022/08/19 09:25:41;;;;;;;18.15;15.77;;;26.90;92.70;;;;;;5034037;28;20045;-71
2022/08/19 09:28:07;;;;;;;18.15;16.48;;;26.80;92.70;;;;;;5034022;28;20045;-72
2022/08/19 09:30:39;;;;;;;20.42;18.60;;;26.80;93.60;;;;;;5033965;28;20046;-72
2022/08/19 09:33:06;;;;;;;18.85;17.15;;;26.80;94.50;;;;;;5033568;28;20107;-71
2022/08/19 09:35:32;;;;;;;18.00;16.35;;;26.70;95.40;;;;;;5016419;28;20497;-67
2022/08/19 09:37:59;;;;;;;20.45;18.50;;;26.80;95.90;;;;;;5033848;28;20124;-73
2022/08/19 09:40:29;;;;;;;17.98;15.65;;;26.90;96.20;;;;;;5033806;28;20046;-67
2022/08/19 09:42:56;;;;;;;19.00;17.00;;;26.90;96.90;;;;;;5033739;28;20049;-69
2022/08/19 09:45:22;;;;;;;18.65;16.88;;;26.90;96.40;;;;;;5034307;28;20473;-67
2022/08/19 09:47:52;;;;;;;17.98;16.02;;;26.90;95.80;;;;;;5033694;28;20057;-71
2022/08/19 09:50:18;;;;;;;18.25;15.88;;;26.90;95.70;;;;;;5015880;28;20104;-68
2022/08/19 09:52:44;;;;;;;18.73;15.93;;;26.90;95.90;;;;;;5034580;28;20081;-69
2022/08/19 09:55:11;;;;;;;14.82;12.38;;;26.80;95.60;;;;;;5034150;28;20056;-70
2022/08/19 09:57:37;;;;;;;11.70;10.50;;;26.80;94.40;;;;;;5016018;28;20136;-72
2022/08/19 10:00:05;;;;;;;14.15;11.18;;;26.80;94.10;;;;;;5033219;28;20476;-73
2022/08/19 10:02:31;;;;;;;14.07;11.68;;;26.70;93.20;;;;;;5034236;28;20492;-71
2022/08/19 10:07:41;;;;;;;13.80;12.38;;;26.60;93.80;;;;;;5033540;28;20049;-71
2022/08/19 10:10:09;;;;;;;15.40;11.47;;;26.50;93.80;;;;;;5034202;28;20041;-71
2022/08/19 10:12:36;;;;;;;12.10;10.73;;;26.50;94.20;;;;;;5033360;28;20114;-72
2022/08/19 10:15:04;;;;;;;14.53;10.87;;;26.50;95.10;;;;;;5033235;28;20143;-71
2022/08/19 10:17:29;;;;;;;16.15;12.02;;;26.50;95.20;;;;;;5033281;28;20045;-71
2022/08/19 10:19:55;;;;;;;14.73;12.00;;;26.50;94.90;;;;;;5033442;28;20059;-71
2022/08/19 10:22:21;;;;;;;12.67;10.00;;;26.50;94.70;;;;;;5033097;28;20045;-73
2022/08/19 10:24:47;;;;;;;13.43;10.10;;;26.50;95.00;;;;;;5033274;28;20045;-72
2022/08/19 10:27:14;;;;;;;14.03;10.43;;;26.60;95.00;;;;;;5033667;28;20092;-73
2022/08/19 10:29:40;;;;;;;14.43;12.53;;;26.60;95.20;;;;;;5033291;28;20045;-74
2022/08/19 10:32:08;;;;;;;15.13;11.63;;;26.60;95.30;;;;;;5032879;28;20504;-73
2022/08/19 10:34:35;;;;;;;16.00;12.07;;;26.60;95.70;;;;;;5015608;28;20128;-72
2022/08/19 10:37:04;;;;;;;14.63;11.87;;;26.70;95.40;;;;;;5033387;28;20409;-71
2022/08/19 10:39:32;;;;;;;13.33;11.13;;;26.70;95.80;;;;;;5031973;28;20068;-73
2022/08/19 10:41:58;;;;;;;15.33;10.90;;;26.80;95.80;;;;;;5033026;28;20199;-73
2022/08/19 10:44:24;;;;;;;16.77;11.13;;;26.70;95.00;;;;;;5035234;28;20068;-71
2022/08/19 10:46:51;;;;;;;13.03;10.07;;;26.70;94.70;;;;;;5036742;28;20083;-71
2022/08/19 10:49:18;;;;;;;13.37;10.73;;;26.60;94.60;;;;;;5036386;28;20066;-70
2022/08/19 10:57:15;;;;;;;14.55;11.07;;;26.50;95.80;;;;;;5036844;28;20053;-70
2022/08/19 10:59:40;;;;;;;12.40;9.30;;;26.50;96.40;;;;;;5036689;28;20111;-69
2022/08/19 11:02:10;;;;;;;11.30;10.10;;;26.60;95.90;;;;;;5036827;28;20045;-69
2022/08/19 11:04:37;;;;;;;15.83;12.00;;;26.60;95.60;;;;;;5036653;28;20473;-70
2022/08/19 11:07:04;;;;;;;11.77;8.70;;;26.50;95.40;;;;;;5036863;28;20440;-70
2022/08/19 11:09:31;;;;;;;14.77;10.07;;;26.50;96.00;;;;;;5036424;28;20045;-69
2022/08/19 11:11:57;;;;;;;15.13;12.27;;;26.50;95.90;;;;;;5036485;28;20041;-69
2022/08/19 11:14:25;;;;;;;15.20;10.93;;;26.50;95.70;;;;;;5037522;28;20052;-69
2022/08/19 11:16:53;;;;;;;18.73;11.60;;;26.40;96.50;;;;;;5036421;28;20124;-69
2022/08/19 11:19:19;;;;;;;16.13;11.27;;;26.40;97.00;;;;;;5036772;28;20142;-70
2022/08/19 11:21:47;;;;;;;16.33;12.20;;;26.40;97.50;;;;;;5036388;28;20053;-69
2022/08/19 11:24:20;;;;;;;15.63;11.20;;;26.30;97.70;;;;;;5036138;28;20048;-70
2022/08/19 11:26:49;;;;;;;16.73;11.13;;;26.30;98.10;;;;;;5036725;28;20052;-69
2022/08/19 11:29:16;;;;;;;16.40;11.10;;;26.20;98.50;;;;;;5036185;28;20132;-69
2022/08/19 11:31:44;;;;;;;13.83;12.10;;;26.20;98.80;;;;;;5036706;28;20041;-70
2022/08/19 11:34:16;;;;;;;21.60;13.30;;;26.20;98.90;;;;;;5036085;28;20050;-70
2022/08/19 11:36:44;;;;;;;16.73;12.67;;;26.10;99.90;;;;;;5036897;28;20058;-70
2022/08/19 11:39:12;;;;;;;18.17;13.27;;;26.00;99.90;;;;;;5036220;28;20462;-71
2022/08/19 11:41:38;;;;;;;16.77;13.30;;;25.90;99.90;;;;;;5036024;28;20055;-69
2022/08/19 11:44:07;;;;;;;18.63;14.33;;;25.80;99.90;;;;;;5035643;28;20049;-73
2022/08/19 11:46:35;;;;;;;20.77;15.30;;;25.70;99.90;;;;;;5035794;28;20053;-73
2022/08/19 11:49:02;;;;;;;19.10;15.33;;;25.70;99.90;;;;;;5035813;28;20057;-72
2022/08/19 11:51:28;;;;;;;20.03;15.97;;;25.70;99.90;;;;;;5035792;28;20049;-72
2022/08/19 11:53:55;;;;;;;21.33;16.20;;;25.80;99.90;;;;;;5018092;28;20041;-72
2022/08/19 11:56:22;;;;;;;20.50;16.90;;;25.90;99.90;;;;;;5035336;28;20056;-72
2022/08/19 11:58:48;;;;;;;19.07;16.80;;;26.00;99.90;;;;;;5035627;28;20049;-76
2022/08/19 12:01:17;;;;;;;22.00;16.60;;;26.10;99.90;;;;;;5018137;28;20386;-74
2022/08/19 12:03:47;;;;;;;23.33;16.83;;;26.10;99.90;;;;;;5017876;28;20045;-77
2022/08/19 12:06:23;;;;;;;22.40;17.20;;;26.10;99.90;;;;;;5035535;28;20052;-71
2022/08/19 12:08:49;;;;;;;21.93;17.43;;;26.20;99.90;;;;;;5035434;28;20046;-70
2022/08/19 12:11:15;;;;;;;23.23;15.53;;;26.20;99.90;;;;;;5035415;28;20132;-71
2022/08/19 12:13:45;;;;;;;26.10;19.53;;;26.30;99.90;;;;;;5035503;28;20311;-70
2022/08/19 12:16:15;;;;;;;26.07;21.40;;;26.30;99.90;;;;;;5035296;28;20060;-70
2022/08/19 12:18:45;;;;;;;22.73;19.17;;;26.30;99.90;;;;;;5035199;28;20497;-70
2022/08/19 12:21:13;;;;;;;23.30;17.87;;;26.20;99.90;;;;;;5035247;28;20124;-71
2022/08/19 12:23:42;;;;;;;19.87;14.97;;;26.20;99.90;;;;;;5035116;28;20049;-70
2022/08/19 12:26:10;;;;;;;24.43;18.27;;;26.10;99.90;;;;;;5035587;28;20045;-70
2022/08/19 12:28:36;;;;;;;24.37;18.10;;;26.00;99.90;;;;;;5035492;28;20056;-69
2022/08/19 12:31:02;;;;;;;23.50;17.33;;;26.00;99.90;;;;;;5034952;28;20041;-69
2022/08/19 12:33:28;;;;;;;20.00;16.00;;;26.00;99.90;;;;;;5034914;28;20041;-69
2022/08/19 12:35:54;;;;;;;20.40;15.53;;;26.00;99.90;;;;;;5035268;28;20049;-69
2022/08/19 12:38:23;;;;;;;19.77;15.30;;;26.00;99.90;;;;;;5034914;28;20056;-69
2022/08/19 12:40:51;;;;;;;17.47;13.53;;;26.10;99.90;;;;;;5034882;28;20474;-69
2022/08/19 12:43:17;;;;;;;19.97;14.47;;;26.10;99.90;;;;;;5035467;28;20038;-70
2022/08/19 12:45:44;;;;;;;20.03;14.30;;;26.10;99.90;;;;;;5034857;28;20051;-69
2022/08/19 12:48:11;;;;;;;22.83;16.30;;;26.10;99.90;;;;;;5035280;28;20064;-69
2022/08/19 12:50:39;;;;;;;19.17;15.80;;;26.10;99.90;;;;;;5034695;28;20124;-68
2022/08/19 12:53:05;;;;;;;23.77;18.10;;;26.10;99.90;;;;;;5034597;28;20049;-69
2022/08/19 12:55:31;;;;;;;22.43;18.20;;;26.00;99.90;;;;;;5034455;28;20478;-69
2022/08/19 12:57:57;;;;;;;25.13;19.43;;;26.00;99.90;;;;;;5035091;28;20049;-72
2022/08/19 13:00:23;;;;;;;23.77;18.10;;;25.90;99.90;;;;;;5035020;28;20106;-70